Time;durP1;ratioP1;P1;durP2;ratioP2;P2;SDS_P1;SDS_P2;PMS_P1;PMS_P2;Temp;Humidity;BMP_temperature;BMP_pressure;BME280_temperature;BME280_humidity;BME280_pressure;Samples;Min_cycle;Max_cycle;Signal;HPM_P1;HPM_P2
2021/08/17 00:04:59;;;;;;;16.23;4.70;;;;;;;12.07;62.73;100072.38;10401711;28;20060;-60
2021/08/17 00:10:05;;;;;;;11.38;4.80;;;;;;;12.09;62.93;100072.28;10438203;28;20088;-61
2021/08/17 00:15:09;;;;;;;10.82;4.47;;;;;;;12.18;62.54;100061.22;10443575;28;20532;-61
2021/08/17 00:20:12;;;;;;;12.77;4.82;;;;;;;12.19;62.32;100060.28;10442203;28;20056;-61
2021/08/17 00:25:14;;;;;;;10.98;4.80;;;;;;;12.18;62.44;100060.38;10444074;28;20156;-61
2021/08/17 00:30:15;;;;;;;14.00;4.80;;;;;;;12.21;62.71;100068.91;10444049;28;20072;-61
2021/08/17 00:35:17;;;;;;;14.05;4.72;;;;;;;12.15;62.57;100062.25;10442905;28;20514;-60
2021/08/17 00:40:19;;;;;;;16.75;4.80;;;;;;;12.22;62.70;100067.94;10444498;28;20092;-61
2021/08/17 00:45:25;;;;;;;13.23;5.40;;;;;;;12.31;62.70;100069.16;10444526;28;20095;-61
2021/08/17 00:50:30;;;;;;;9.48;4.32;;;;;;;12.41;62.58;100072.88;10443501;28;20045;-61
2021/08/17 00:55:32;;;;;;;12.32;5.05;;;;;;;12.46;62.52;100076.88;10444098;28;20075;-61
2021/08/17 01:00:34;;;;;;;11.02;4.10;;;;;;;12.54;62.16;100069.34;10443690;28;20171;-61
2021/08/17 01:05:36;;;;;;;11.88;4.63;;;;;;;12.62;61.97;100069.69;10444850;28;20072;-61
2021/08/17 01:10:39;;;;;;;11.25;4.50;;;;;;;12.68;61.94;100063.22;10450946;28;20448;-61
2021/08/17 01:15:40;;;;;;;10.88;4.47;;;;;;;12.62;61.72;100074.94;10449434;28;20125;-61
2021/08/17 01:20:48;;;;;;;11.35;4.40;;;;;;;12.76;61.53;100074.84;10450607;28;20136;-61
2021/08/17 01:25:50;;;;;;;11.02;4.68;;;;;;;12.90;61.03;100068.72;10449003;28;20080;-61
2021/08/17 01:31:02;;;;;;;8.68;4.90;;;;;;;12.92;60.99;100074.69;10450536;28;20164;-61
2021/08/17 01:36:04;;;;;;;10.93;4.68;;;;;;;12.82;61.02;100079.69;10448762;28;20049;-61
2021/08/17 01:41:06;;;;;;;13.38;4.90;;;;;;;12.76;61.05;100092.41;10450167;28;20549;-61
2021/08/17 01:46:11;;;;;;;11.77;5.00;;;;;;;12.74;61.08;100089.03;10449730;28;20509;-61
2021/08/17 01:51:13;;;;;;;14.35;4.95;;;;;;;12.73;61.14;100092.59;10449760;28;20049;-61
2021/08/17 01:56:15;;;;;;;12.10;4.88;;;;;;;12.65;61.26;100098.34;10447533;28;20081;-61
2021/08/17 02:01:18;;;;;;;13.70;5.20;;;;;;;12.47;61.78;100101.34;10450608;28;20155;-61
2021/08/17 02:06:20;;;;;;;8.27;4.47;;;;;;;12.52;61.82;100100.09;10455605;28;20053;-61
2021/08/17 02:11:22;;;;;;;8.90;4.80;;;;;;;12.55;61.91;100092.03;10456886;28;20080;-61
2021/08/17 02:16:24;;;;;;;11.48;5.13;;;;;;;12.51;61.57;100095.78;10456455;28;20103;-61
2021/08/17 02:21:26;;;;;;;11.20;5.10;;;;;;;12.40;61.99;100089.53;10456125;28;20052;-61
2021/08/17 02:26:27;;;;;;;12.55;5.30;;;;;;;12.17;62.33;100098.03;10452067;28;20037;-61
2021/08/17 02:31:30;;;;;;;13.30;5.45;;;;;;;12.13;62.51;100103.44;10454424;28;20490;-61
2021/08/17 02:36:32;;;;;;;12.35;5.47;;;;;;;12.10;62.56;100105.44;10455704;28;20053;-61
2021/08/17 02:41:33;;;;;;;10.73;5.82;;;;;;;12.02;62.64;100103.31;10454840;28;20175;-61
2021/08/17 02:46:35;;;;;;;12.18;5.70;;;;;;;12.05;62.75;100103.09;10455362;28;20124;-61
2021/08/17 02:51:37;;;;;;;13.70;6.18;;;;;;;12.03;62.76;100106.75;10455285;28;20084;-61
2021/08/17 02:56:38;;;;;;;15.13;6.60;;;;;;;11.89;62.87;100115.47;10455089;28;20088;-61
2021/08/17 03:01:40;;;;;;;13.25;6.50;;;;;;;11.85;63.16;100107.91;10415467;28;20084;-61
2021/08/17 03:06:42;;;;;;;11.68;6.35;;;;;;;11.96;62.87;100111.56;10445432;28;20048;-60
2021/08/17 03:11:44;;;;;;;12.38;6.40;;;;;;;11.93;62.96;100116.13;10448077;28;20083;-61
2021/08/17 03:16:46;;;;;;;15.45;6.68;;;;;;;12.06;62.93;100117.91;10447505;28;20053;-61
2021/08/17 03:21:47;;;;;;;12.70;6.10;;;;;;;12.21;62.44;100110.84;10447379;28;20079;-61
2021/08/17 03:26:49;;;;;;;11.93;6.50;;;;;;;12.04;62.57;100111.91;10446114;28;20071;-61
2021/08/17 03:31:51;;;;;;;12.18;6.00;;;;;;;11.90;62.85;100111.94;10446971;28;20084;-61
2021/08/17 03:36:52;;;;;;;12.70;6.60;;;;;;;11.90;62.92;100114.56;10446738;28;20156;-61
2021/08/17 03:41:54;;;;;;;14.38;7.22;;;;;;;12.04;62.78;100117.16;10446655;28;20140;-61
2021/08/17 03:46:56;;;;;;;11.68;6.63;;;;;;;12.22;62.53;100116.91;10446033;28;20497;-61
2021/08/17 03:51:58;;;;;;;16.48;7.35;;;;;;;12.10;62.27;100118.53;10446237;28;20119;-61
2021/08/17 03:56:59;;;;;;;13.88;7.45;;;;;;;11.96;62.51;100121.19;10443618;28;20446;-61
2021/08/17 04:02:01;;;;;;;17.17;7.03;;;;;;;11.79;63.05;100121.38;10445733;28;20132;-61
2021/08/17 04:07:03;;;;;;;13.20;7.45;;;;;;;11.77;63.13;100123.25;10444636;28;20104;-61
2021/08/17 04:12:05;;;;;;;15.90;7.30;;;;;;;11.68;63.34;100119.41;10445661;28;20083;-62
2021/08/17 04:17:07;;;;;;;12.23;7.15;;;;;;;11.62;63.39;100125.03;10445712;28;20084;-61
2021/08/17 04:22:09;;;;;;;13.18;7.47;;;;;;;11.61;63.32;100135.59;10445487;28;20127;-61
2021/08/17 04:27:11;;;;;;;15.30;8.15;;;;;;;11.72;63.08;100127.94;10445065;28;20091;-61
2021/08/17 04:32:13;;;;;;;14.50;8.23;;;;;;;11.65;63.13;100124.84;10445220;28;20085;-61
2021/08/17 04:37:14;;;;;;;14.77;8.05;;;;;;;11.51;63.56;100111.75;10445509;28;20041;-61
2021/08/17 04:42:16;;;;;;;15.75;8.52;;;;;;;11.44;63.85;100118.28;10447509;28;20053;-61
2021/08/17 04:47:18;;;;;;;16.33;9.10;;;;;;;11.46;63.75;100126.88;10452265;28;20152;-61
2021/08/17 04:52:19;;;;;;;16.33;8.30;;;;;;;11.59;63.39;100120.00;10453183;28;20086;-61
2021/08/17 04:57:21;;;;;;;19.15;9.20;;;;;;;11.87;62.81;100121.75;10437249;28;20136;-60
2021/08/17 05:02:23;;;;;;;18.02;9.20;;;;;;;12.05;62.44;100125.84;10411074;28;20072;-61
2021/08/17 05:07:25;;;;;;;15.50;8.68;;;;;;;12.33;61.70;100138.09;10424938;28;20084;-61
2021/08/17 05:12:27;;;;;;;14.25;8.40;;;;;;;12.89;60.48;100151.00;10451137;28;20083;-61
2021/08/17 05:17:28;;;;;;;18.23;9.23;;;;;;;13.02;60.17;100151.91;10452152;28;20106;-60
2021/08/17 05:22:30;;;;;;;15.10;9.48;;;;;;;13.13;59.43;100157.25;10451612;28;20103;-61
2021/08/17 05:27:32;;;;;;;14.25;8.90;;;;;;;13.36;59.26;100147.84;10451770;28;20080;-61
2021/08/17 05:32:34;;;;;;;14.35;8.80;;;;;;;13.53;58.74;100160.72;10452220;28;20136;-60
2021/08/17 05:37:37;;;;;;;17.17;9.00;;;;;;;13.68;58.49;100168.38;10451356;28;20128;-61
2021/08/17 05:42:39;;;;;;;18.42;9.63;;;;;;;13.57;58.62;100181.44;10425993;28;20175;-61
2021/08/17 05:47:43;;;;;;;16.00;9.40;;;;;;;13.50;58.77;100185.41;10409699;28;20128;-61
2021/08/17 05:52:45;;;;;;;21.90;10.48;;;;;;;13.32;58.95;100170.00;10408931;28;20150;-61
2021/08/17 05:57:57;;;;;;;18.55;9.95;;;;;;;13.53;59.06;100182.59;10408212;28;20136;-61
2021/08/17 06:03:00;;;;;;;16.70;10.32;;;;;;;14.23;57.44;100185.56;10446519;28;20485;-61
2021/08/17 06:08:03;;;;;;;17.10;10.25;;;;;;;14.28;57.19;100197.47;10440058;28;20060;-61
2021/08/17 06:13:04;;;;;;;16.73;10.05;;;;;;;14.30;57.34;100192.94;10415525;28;20187;-61
2021/08/17 06:18:08;;;;;;;17.33;10.73;;;;;;;14.77;56.30;100201.88;10406844;28;20077;-61
2021/08/17 06:23:10;;;;;;;16.38;10.02;;;;;;;14.98;56.04;100195.03;10406276;28;20084;-61
2021/08/17 06:28:12;;;;;;;17.38;10.38;;;;;;;15.02;55.44;100193.88;10406318;28;20057;-61
2021/08/17 06:33:14;;;;;;;18.88;11.02;;;;;;;14.95;55.78;100205.78;10421349;28;20133;-61
2021/08/17 06:38:16;;;;;;;17.02;11.00;;;;;;;14.71;55.66;100197.03;10406047;28;20053;-61
2021/08/17 06:43:17;;;;;;;17.23;11.40;;;;;;;14.67;56.02;100191.16;10442393;28;20127;-61
2021/08/17 06:48:19;;;;;;;22.15;12.05;;;;;;;14.82;55.88;100199.75;10446330;28;20084;-61
2021/08/17 06:53:22;;;;;;;19.30;11.52;;;;;;;14.91;55.60;100194.66;10446585;28;20123;-61
2021/08/17 06:58:24;;;;;;;20.25;11.80;;;;;;;14.81;55.86;100198.91;10445754;28;20084;-61
2021/08/17 07:03:26;;;;;;;21.33;11.60;;;;;;;15.15;54.99;100203.38;10438113;28;20049;-61
2021/08/17 07:08:27;;;;;;;19.17;11.48;;;;;;;15.31;54.76;100203.06;10445930;28;20056;-61
2021/08/17 07:13:29;;;;;;;18.35;11.30;;;;;;;15.84;53.66;100201.63;10418743;28;20135;-61
2021/08/17 07:18:31;;;;;;;20.33;11.82;;;;;;;15.96;53.27;100192.78;10407483;28;20056;-61
2021/08/17 07:23:33;;;;;;;19.55;12.15;;;;;;;15.82;52.98;100193.84;10445000;28;20087;-60
2021/08/17 07:28:35;;;;;;;17.58;11.43;;;;;;;15.83;53.22;100190.28;10448277;28;20519;-61
2021/08/17 07:33:37;;;;;;;19.48;11.88;;;;;;;16.34;52.35;100168.66;10436712;28;20073;-61
2021/08/17 07:38:39;;;;;;;19.75;12.63;;;;;;;16.99;51.22;100164.19;10408267;28;20364;-61
2021/08/17 07:43:40;;;;;;;19.88;11.93;;;;;;;17.23;50.42;100172.72;10449149;28;20049;-61
2021/08/17 07:48:42;;;;;;;23.50;12.52;;;;;;;17.50;50.04;100175.75;10465097;28;20054;-61
2021/08/17 07:53:45;;;;;;;18.55;12.20;;;;;;;18.37;48.46;100179.66;10404561;28;20412;-61
2021/08/17 07:58:47;;;;;;;18.30;11.50;;;;;;;19.22;46.34;100183.41;10404804;28;20064;-61
2021/08/17 08:03:49;;;;;;;19.48;11.98;;;;;;;20.09;44.63;100195.56;10482367;28;20446;-62
2021/08/17 08:08:50;;;;;;;18.30;12.32;;;;;;;19.95;44.89;100188.06;10444887;28;20056;-61
2021/08/17 08:13:52;;;;;;;17.13;11.82;;;;;;;20.44;44.16;100177.06;10445146;28;20478;-61
2021/08/17 08:18:54;;;;;;;18.67;12.27;;;;;;;20.97;43.14;100174.50;10454041;28;20072;-62
2021/08/17 08:23:56;;;;;;;16.85;11.85;;;;;;;21.12;42.72;100161.50;10436353;28;20049;-60
2021/08/17 08:28:57;;;;;;;18.15;12.32;;;;;;;20.94;43.06;100165.00;10441342;28;20079;-63
2021/08/17 08:33:59;;;;;;;16.65;11.70;;;;;;;20.05;44.10;100167.63;10436709;28;20096;-63
2021/08/17 08:39:01;;;;;;;18.40;12.27;;;;;;;19.69;44.66;100163.94;10450101;28;20084;-64
2021/08/17 08:44:03;;;;;;;19.65;11.95;;;;;;;19.61;45.18;100166.47;10446267;28;20133;-63
2021/08/17 08:49:05;;;;;;;17.90;12.73;;;;;;;19.57;45.02;100172.19;10447710;28;20352;-63
2021/08/17 08:54:08;;;;;;;18.27;11.88;;;;;;;19.86;44.63;100178.31;10478822;28;20072;-63
2021/08/17 08:59:09;;;;;;;17.38;11.73;;;;;;;19.89;44.14;100193.91;10429500;28;20179;-64
2021/08/17 09:04:14;;;;;;;17.70;11.90;;;;;;;20.33;43.44;100192.38;10420880;28;20131;-64
2021/08/17 09:09:17;;;;;;;15.82;11.20;;;;;;;21.03;41.87;100190.69;10439007;28;20504;-63
2021/08/17 09:14:34;;;;;;;18.20;11.40;;;;;;;20.55;42.21;100198.13;10422883;28;20136;-64
2021/08/17 09:19:41;;;;;;;19.58;11.27;;;;;;;20.91;41.45;100175.94;10465733;28;20116;-64
2021/08/17 09:24:45;;;;;;;18.27;11.43;;;;;;;21.33;40.50;100154.06;10447332;28;20148;-63
2021/08/17 09:30:00;;;;;;;15.23;11.02;;;;;;;20.76;41.76;100168.66;10482784;28;20086;-63
2021/08/17 09:35:03;;;;;;;16.70;11.23;;;;;;;20.53;42.09;100148.75;10424609;28;20117;-63
2021/08/17 09:40:06;;;;;;;17.42;10.77;;;;;;;20.09;42.42;100137.94;10454095;28;20088;-63
2021/08/17 09:45:15;;;;;;;14.63;10.40;;;;;;;19.93;42.90;100147.56;10451314;28;20107;-63
2021/08/17 09:50:31;;;;;;;17.50;11.15;;;;;;;19.91;42.74;100152.19;10430577;28;20080;-63
2021/08/17 09:55:59;;;;;;;18.27;10.52;;;;;;;19.56;43.77;100144.00;10442668;28;20076;-63
2021/08/17 10:01:09;;;;;;;14.43;10.20;;;;;;;20.23;42.84;100136.66;10408389;28;20714;-63
2021/08/17 10:06:11;;;;;;;15.88;10.57;;;;;;;20.09;42.81;100145.09;10419771;28;20405;-63
2021/08/17 10:11:13;;;;;;;16.27;10.43;;;;;;;20.31;42.80;100158.00;10408492;28;20533;-63
2021/08/17 10:16:18;;;;;;;16.05;10.55;;;;;;;20.41;41.83;100155.28;10406830;28;20088;-63
2021/08/17 10:21:20;;;;;;;16.67;10.75;;;;;;;20.53;41.82;100165.53;10408164;28;20551;-63
2021/08/17 10:26:31;;;;;;;14.93;10.38;;;;;;;21.39;39.39;100142.81;10420909;28;20132;-62
2021/08/17 10:31:33;;;;;;;19.00;10.45;;;;;;;21.99;39.09;100144.47;10449001;28;20102;-62
2021/08/17 10:36:43;;;;;;;15.85;9.50;;;;;;;21.78;39.25;100133.41;10420366;28;20056;-62
2021/08/17 10:41:47;;;;;;;16.77;9.73;;;;;;;21.27;39.71;100134.22;10407555;28;20057;-62
2021/08/17 10:46:53;;;;;;;16.73;9.70;;;;;;;21.19;40.16;100133.31;10406097;28;20080;-62
2021/08/17 10:51:59;;;;;;;11.95;8.63;;;;;;;21.21;39.96;100136.66;10421697;28;20052;-62
2021/08/17 10:57:21;;;;;;;13.13;8.90;;;;;;;20.94;38.66;100132.25;10433704;28;20501;-62
2021/08/17 11:02:23;;;;;;;12.10;8.55;;;;;;;21.00;39.92;100134.31;10417637;28;20076;-62
2021/08/17 11:07:28;;;;;;;13.35;7.78;;;;;;;20.90;39.33;100125.59;10447533;28;20053;-62
2021/08/17 11:12:33;;;;;;;13.63;8.38;;;;;;;20.97;39.61;100134.59;10447592;28;20077;-62
2021/08/17 11:17:35;;;;;;;14.25;8.57;;;;;;;20.49;40.12;100118.16;10452856;28;20086;-62
2021/08/17 11:22:39;;;;;;;12.20;8.30;;;;;;;20.73;40.38;100113.97;10466051;28;20057;-62
2021/08/17 11:27:42;;;;;;;13.10;8.57;;;;;;;20.55;40.37;100113.09;10446616;28;20041;-62
2021/08/17 11:32:48;;;;;;;11.60;7.75;;;;;;;20.34;40.64;100120.50;10423647;28;20553;-62
2021/08/17 11:37:52;;;;;;;15.38;8.85;;;;;;;20.34;40.78;100107.22;10487305;28;20116;-62
2021/08/17 11:42:56;;;;;;;12.38;8.35;;;;;;;20.19;40.77;100106.88;10475295;28;20521;-62
2021/08/17 11:48:00;;;;;;;12.25;8.35;;;;;;;20.55;40.49;100101.63;10436014;28;20095;-62
2021/08/17 11:53:02;;;;;;;13.18;8.38;;;;;;;20.50;40.40;100107.38;10478227;28;20102;-62
2021/08/17 11:58:08;;;;;;;13.00;8.70;;;;;;;19.83;40.41;100128.16;10438334;28;20091;-62
2021/08/17 12:03:09;;;;;;;11.98;8.35;;;;;;;19.54;41.66;100119.44;10454492;28;20493;-62
2021/08/17 12:08:14;;;;;;;12.60;8.50;;;;;;;19.68;41.40;100113.66;10425717;28;20115;-62
2021/08/17 12:13:16;;;;;;;13.02;8.68;;;;;;;19.56;41.58;100106.88;10478125;28;20060;-62
2021/08/17 12:18:19;;;;;;;13.07;8.25;;;;;;;19.28;42.27;100103.28;10437824;28;20042;-62
2021/08/17 12:23:34;;;;;;;10.85;7.97;;;;;;;18.91;42.38;100097.84;10422833;28;20048;-62
2021/08/17 12:28:37;;;;;;;13.60;8.07;;;;;;;18.73;42.44;100088.94;10460035;28;20088;-62
2021/08/17 12:33:54;;;;;;;12.30;8.52;;;;;;;18.67;41.87;100069.16;10473321;28;20481;-63
2021/08/17 12:39:08;;;;;;;11.15;7.80;;;;;;;18.58;41.94;100079.75;10436530;28;20049;-65
2021/08/17 12:44:19;;;;;;;10.13;7.40;;;;;;;18.48;42.93;100094.81;10441186;28;20045;-62
2021/08/17 12:49:20;;;;;;;12.73;7.63;;;;;;;18.41;43.19;100085.72;10438976;28;20076;-62
2021/08/17 12:54:22;;;;;;;12.65;7.35;;;;;;;18.33;43.09;100085.56;10414521;28;20133;-62
2021/08/17 12:59:24;;;;;;;9.70;6.55;;;;;;;18.03;42.73;100086.47;10435786;28;20084;-62
2021/08/17 13:04:25;;;;;;;10.50;6.82;;;;;;;18.04;43.55;100089.91;10449033;28;20114;-62
2021/08/17 13:09:27;;;;;;;12.00;7.13;;;;;;;18.29;43.06;100089.47;10451028;28;20068;-62
2021/08/17 13:14:30;;;;;;;11.65;7.13;;;;;;;18.35;43.44;100062.44;10439820;28;20504;-63
2021/08/17 13:19:32;;;;;;;12.63;6.95;;;;;;;18.41;43.11;100048.66;10471266;28;20076;-62
2021/08/17 13:24:34;;;;;;;12.02;7.00;;;;;;;18.39;43.23;100056.72;10459102;28;20076;-62
2021/08/17 13:29:36;;;;;;;11.43;7.07;;;;;;;18.31;43.39;100053.09;10450091;28;20132;-62
2021/08/17 13:34:38;;;;;;;10.38;6.88;;;;;;;18.49;43.17;100059.38;10408852;28;20046;-63
2021/08/17 13:39:40;;;;;;;12.52;6.97;;;;;;;18.51;43.29;100044.19;10442106;28;20088;-63
2021/08/17 13:44:43;;;;;;;12.27;7.15;;;;;;;18.44;43.45;100041.25;10470153;28;20453;-63
2021/08/17 13:49:45;;;;;;;12.30;7.38;;;;;;;18.66;43.01;100045.47;10433666;28;20080;-62
2021/08/17 13:54:48;;;;;;;11.73;6.97;;;;;;;18.63;43.42;100045.72;10438285;28;20140;-62
2021/08/17 13:59:50;;;;;;;11.25;6.78;;;;;;;18.67;43.63;100050.59;10447649;28;20053;-62
2021/08/17 14:04:53;;;;;;;9.93;6.80;;;;;;;18.60;43.74;100043.38;10446499;28;20498;-62
2021/08/17 14:09:54;;;;;;;13.82;7.75;;;;;;;18.45;43.69;100039.44;10448524;28;20095;-62
2021/08/17 14:14:56;;;;;;;11.95;7.50;;;;;;;18.36;44.11;100045.59;10434200;28;20044;-63
2021/08/17 14:19:58;;;;;;;10.48;6.72;;;;;;;18.42;44.05;100045.03;10477383;28;20146;-63
2021/08/17 14:25:01;;;;;;;12.48;7.18;;;;;;;18.20;44.67;100034.72;10464310;28;20127;-63
2021/08/17 14:30:03;;;;;;;13.95;8.15;;;;;;;18.04;45.05;100032.53;10439614;28;20120;-63
2021/08/17 14:35:05;;;;;;;13.40;8.40;;;;;;;17.97;45.28;100039.38;10431160;28;20086;-63
2021/08/17 14:40:08;;;;;;;13.10;7.75;;;;;;;17.85;46.13;100030.69;10480554;28;20454;-63
2021/08/17 14:45:10;;;;;;;13.00;8.18;;;;;;;17.91;46.55;100037.25;10465781;28;20045;-63
2021/08/17 14:50:12;;;;;;;15.30;8.50;;;;;;;17.77;47.48;100038.47;10483034;28;20136;-63
2021/08/17 14:55:13;;;;;;;14.65;8.38;;;;;;;17.55;48.36;100032.53;10485921;28;20553;-63
2021/08/17 15:00:15;;;;;;;16.58;8.80;;;;;;;17.41;49.99;100039.03;10484031;28;20110;-63
2021/08/17 15:05:18;;;;;;;15.50;9.15;;;;;;;17.38;50.57;100036.66;10479542;28;20049;-63
2021/08/17 15:10:20;;;;;;;13.93;8.25;;;;;;;17.35;50.95;100036.91;10457050;28;20114;-62
2021/08/17 15:15:22;;;;;;;15.55;8.70;;;;;;;17.36;52.28;100041.25;10473953;28;20144;-62
2021/08/17 15:20:24;;;;;;;14.23;8.88;;;;;;;17.33;53.32;100037.97;10475436;28;20110;-62
2021/08/17 15:25:26;;;;;;;17.80;10.90;;;;;;;17.16;53.81;100047.34;10479320;28;20052;-63
2021/08/17 15:30:49;;;;;;;17.33;11.20;;;;;;;17.20;53.27;100048.75;10441564;28;20050;-63
2021/08/17 15:35:55;;;;;;;19.67;12.02;;;;;;;17.17;54.51;100049.03;10438694;28;20136;-63
2021/08/17 15:40:58;;;;;;;19.08;11.85;;;;;;;17.12;55.03;100042.47;10486197;28;20060;-63
2021/08/17 15:46:00;;;;;;;20.10;12.02;;;;;;;17.23;55.50;100035.28;10448564;28;20077;-63
2021/08/17 15:51:02;;;;;;;19.92;11.68;;;;;;;17.32;55.79;100037.16;10461365;28;20135;-63
2021/08/17 15:56:04;;;;;;;19.88;11.68;;;;;;;17.26;55.82;100040.28;10429549;28;20151;-63
2021/08/17 16:01:05;;;;;;;21.25;11.52;;;;;;;17.16;56.03;100055.25;10439943;28;20081;-63
2021/08/17 16:06:08;;;;;;;18.58;11.80;;;;;;;16.77;56.40;100046.25;10441669;28;20128;-63
2021/08/17 16:11:09;;;;;;;17.15;11.60;;;;;;;16.62;56.95;100051.97;10441743;28;20382;-62
2021/08/17 16:16:11;;;;;;;15.88;10.50;;;;;;;16.50;56.31;100047.69;10425545;28;20140;-62
2021/08/17 16:21:15;;;;;;;19.30;10.85;;;;;;;16.18;57.34;100032.66;10413177;28;20057;-62
2021/08/17 16:26:18;;;;;;;16.10;10.73;;;;;;;16.23;57.38;100027.84;10431571;28;20083;-63
2021/08/17 16:31:20;;;;;;;17.17;11.13;;;;;;;16.23;57.41;100034.94;10457093;28;20140;-63
2021/08/17 16:36:22;;;;;;;17.70;10.95;;;;;;;16.17;58.11;100035.44;10413681;28;20470;-63
2021/08/17 16:41:24;;;;;;;16.25;10.65;;;;;;;16.12;57.82;100019.97;10409627;28;20064;-62
2021/08/17 16:46:26;;;;;;;16.10;10.48;;;;;;;16.18;57.73;100031.84;10489417;28;20049;-63
2021/08/17 16:51:28;;;;;;;17.85;10.48;;;;;;;16.15;57.67;100035.56;10488893;28;20044;-63
2021/08/17 16:56:30;;;;;;;15.55;9.85;;;;;;;16.15;57.30;100035.56;10435528;28;20065;-63
2021/08/17 17:01:31;;;;;;;16.80;10.15;;;;;;;15.99;58.28;100032.47;10432704;28;20079;-65
2021/08/17 17:06:33;;;;;;;16.80;10.27;;;;;;;15.88;59.01;100048.31;10424568;28;20064;-63
2021/08/17 17:11:35;;;;;;;17.10;10.65;;;;;;;15.74;60.40;100038.03;10445736;28;20051;-63
2021/08/17 17:16:37;;;;;;;21.95;11.57;;;;;;;15.67;60.88;100042.13;10443133;28;20508;-63
2021/08/17 17:21:39;;;;;;;20.58;11.57;;;;;;;15.63;61.45;100040.69;10449101;28;20049;-64
2021/08/17 17:26:44;;;;;;;30.00;14.10;;;;;;;15.65;62.19;100014.19;10446064;28;20460;-64
2021/08/17 17:31:48;;;;;;;22.42;12.00;;;;;;;15.49;62.02;100005.78;10444063;28;20149;-64
2021/08/17 17:36:50;;;;;;;20.83;12.32;;;;;;;15.42;62.69;100010.69;10428669;28;20477;-64
2021/08/17 17:41:52;;;;;;;19.60;12.15;;;;;;;15.46;62.84;100016.56;10412120;28;20155;-64
2021/08/17 17:46:54;;;;;;;24.48;13.23;;;;;;;15.53;62.65;100005.44;10432971;28;20076;-64
2021/08/17 17:51:55;;;;;;;23.98;13.40;;;;;;;15.49;62.96;99993.47;10444218;28;20559;-64
2021/08/17 17:56:57;;;;;;;19.52;12.23;;;;;;;15.49;62.95;99977.66;10431559;28;20120;-64
2021/08/17 18:01:59;;;;;;;20.15;11.57;;;;;;;15.31;63.40;99982.56;10433955;28;20688;-63
2021/08/17 18:07:01;;;;;;;19.58;11.95;;;;;;;15.34;62.92;99992.88;10428140;28;20524;-64
2021/08/17 18:12:05;;;;;;;19.08;12.27;;;;;;;15.27;63.09;99985.53;10446340;28;20053;-64
2021/08/17 18:17:07;;;;;;;20.00;12.00;;;;;;;15.24;63.43;99989.28;10440224;28;20079;-64
2021/08/17 18:22:09;;;;;;;22.30;12.60;;;;;;;15.22;63.48;99985.06;10444627;28;20476;-64
2021/08/17 18:27:12;;;;;;;22.88;12.10;;;;;;;15.18;64.00;99981.00;10447836;28;20049;-64
2021/08/17 18:32:16;;;;;;;20.25;11.57;;;;;;;15.13;63.94;99977.88;10446501;28;20087;-64
2021/08/17 18:37:17;;;;;;;20.98;11.90;;;;;;;15.13;63.99;99993.69;10446662;28;20482;-64
2021/08/17 18:42:19;;;;;;;24.80;12.55;;;;;;;15.19;63.76;99988.78;10447309;28;20107;-64
2021/08/17 18:47:21;;;;;;;20.60;12.65;;;;;;;15.22;63.58;99985.06;10453413;28;20065;-64
2021/08/17 18:52:23;;;;;;;22.83;12.50;;;;;;;15.22;63.96;99992.97;10435368;28;20563;-64
2021/08/17 18:57:26;;;;;;;25.13;12.55;;;;;;;15.30;63.83;99985.31;10473578;28;20053;-64
2021/08/17 19:02:29;;;;;;;19.95;11.85;;;;;;;15.34;63.93;99987.59;10413111;28;20136;-65
2021/08/17 19:07:31;;;;;;;25.50;13.98;;;;;;;15.38;63.82;99985.56;10429564;28;20186;-65
2021/08/17 19:12:33;;;;;;;20.92;12.05;;;;;;;15.35;63.87;99981.34;10453580;28;20044;-65
2021/08/17 19:17:35;;;;;;;31.15;13.77;;;;;;;15.33;64.11;99985.91;10438637;28;20053;-66
2021/08/17 19:22:37;;;;;;;27.90;13.60;;;;;;;15.31;64.13;99984.34;10447170;28;20139;-65
2021/08/17 19:27:39;;;;;;;18.70;11.35;;;;;;;15.19;64.16;99987.94;10429182;28;20076;-65
2021/08/17 19:32:41;;;;;;;22.77;12.70;;;;;;;15.06;64.87;99987.22;10445920;28;20088;-65
2021/08/17 19:37:43;;;;;;;21.15;11.85;;;;;;;15.07;64.38;99995.00;10444975;28;20052;-65
2021/08/17 19:42:45;;;;;;;17.67;11.32;;;;;;;15.04;64.47;99999.69;10405339;28;20111;-65
2021/08/17 19:47:47;;;;;;;22.83;12.05;;;;;;;15.06;64.90;99995.13;10405904;28;20124;-65
2021/08/17 19:52:49;;;;;;;18.17;11.15;;;;;;;15.11;64.77;100000.88;10446190;28;20053;-65
2021/08/17 19:57:52;;;;;;;21.00;12.35;;;;;;;15.06;64.82;99997.75;10439019;28;20117;-65
2021/08/17 20:02:54;;;;;;;16.88;11.02;;;;;;;14.89;64.94;99995.56;10405728;28;20088;-65
2021/08/17 20:07:57;;;;;;;19.65;12.00;;;;;;;14.81;64.74;100003.22;10422719;28;20049;-65
2021/08/17 20:12:59;;;;;;;19.60;11.73;;;;;;;14.83;64.87;99990.78;10454638;28;20417;-65
2021/08/17 20:18:01;;;;;;;19.25;11.68;;;;;;;14.83;64.92;99988.97;10452850;28;20148;-65
2021/08/17 20:23:09;;;;;;;19.48;11.80;;;;;;;14.84;64.94;99977.47;10452199;28;20139;-65
2021/08/17 20:28:13;;;;;;;20.42;11.43;;;;;;;14.90;64.66;99973.56;10440428;28;20547;-64
2021/08/17 20:33:15;;;;;;;22.27;11.73;;;;;;;14.93;64.66;99968.03;10417069;28;20136;-65
2021/08/17 20:38:17;;;;;;;21.90;11.90;;;;;;;14.88;64.73;99963.13;10418353;28;20079;-65
2021/08/17 20:43:19;;;;;;;20.48;11.88;;;;;;;14.86;64.74;99962.41;10446727;28;20144;-65
2021/08/17 20:48:22;;;;;;;23.20;11.77;;;;;;;14.83;64.72;99964.44;10453648;28;20087;-65
2021/08/17 20:53:24;;;;;;;18.17;11.18;;;;;;;14.83;65.00;99960.03;10416746;28;20565;-65
2021/08/17 20:58:27;;;;;;;17.00;10.75;;;;;;;14.74;64.97;99962.50;10436771;28;20079;-65
2021/08/17 21:03:30;;;;;;;17.48;10.00;;;;;;;14.65;64.88;99952.69;10457831;28;20084;-65
2021/08/17 21:08:36;;;;;;;17.63;10.23;;;;;;;14.72;64.95;99952.09;10436608;28;20157;-65
2021/08/17 21:13:38;;;;;;;17.48;10.32;;;;;;;14.72;65.26;99946.81;10416247;28;20053;-65
2021/08/17 21:18:40;;;;;;;15.45;9.85;;;;;;;14.64;65.52;99954.47;10437410;28;20122;-65
2021/08/17 21:23:43;;;;;;;15.48;8.80;;;;;;;14.56;65.56;99948.94;10453487;28;20057;-65
2021/08/17 21:28:45;;;;;;;15.43;9.00;;;;;;;14.63;65.29;99949.34;10434017;28;20053;-65
2021/08/17 21:33:47;;;;;;;17.92;10.15;;;;;;;14.64;65.40;99954.47;10409462;28;20470;-65
2021/08/17 21:38:49;;;;;;;14.32;9.10;;;;;;;14.69;65.04;99952.34;10419389;28;20484;-65
2021/08/17 21:43:51;;;;;;;15.07;9.27;;;;;;;14.61;65.71;99953.88;10408641;28;20111;-65
2021/08/17 21:48:53;;;;;;;13.23;8.23;;;;;;;14.70;65.15;99947.91;10415134;28;20045;-65
2021/08/17 21:53:55;;;;;;;13.73;8.48;;;;;;;14.77;65.25;99954.38;10450005;28;20418;-65
2021/08/17 21:58:57;;;;;;;14.57;7.95;;;;;;;14.71;65.34;99952.22;10426375;28;20538;-65
2021/08/17 22:03:59;;;;;;;16.08;8.70;;;;;;;14.71;65.46;99944.31;10408433;28;20128;-65
2021/08/17 22:09:00;;;;;;;13.40;8.07;;;;;;;14.77;65.37;99942.06;10427325;28;20092;-65
2021/08/17 22:14:03;;;;;;;11.75;7.82;;;;;;;14.73;65.43;99943.25;10438408;28;20454;-64
2021/08/17 22:19:04;;;;;;;13.00;8.13;;;;;;;14.74;65.28;99942.28;10425134;28;20128;-65
2021/08/17 22:24:06;;;;;;;10.90;7.15;;;;;;;14.77;65.58;99942.06;10407517;28;20097;-65
2021/08/17 22:29:08;;;;;;;13.50;7.90;;;;;;;14.83;65.74;99927.59;10430187;28;20103;-65
2021/08/17 22:34:10;;;;;;;14.73;7.40;;;;;;;14.78;65.53;99935.00;10447958;28;20072;-64
2021/08/17 22:39:12;;;;;;;12.10;7.28;;;;;;;14.83;65.64;99927.59;10422744;28;20124;-65
2021/08/17 22:44:14;;;;;;;14.43;7.50;;;;;;;14.83;65.74;99928.44;10406437;28;20550;-64
2021/08/17 22:49:16;;;;;;;10.00;6.85;;;;;;;14.81;65.75;99932.97;10430684;28;20140;-65
2021/08/17 22:54:18;;;;;;;11.07;6.88;;;;;;;14.92;65.69;99926.88;10447662;28;20083;-65